sensor_id;sensor_type;location;lat;lon;timestamp;temperature;humidity
20881;DHT22;10600;53.096;8.802;2022-10-26T00:00:16;10.00;99.90
20881;DHT22;10600;53.096;8.802;2022-10-26T00:01:18;10.00;99.90
20881;DHT22;10600;53.096;8.802;2022-10-26T00:02:18;10.00;99.90
20881;DHT22;10600;53.096;8.802;2022-10-26T00:03:19;10.00;99.90
20881;DHT22;10600;53.096;8.802;2022-10-26T00:04:20;10.00;99.90
20881;DHT22;10600;53.096;8.802;2022-10-26T00:05:21;10.00;99.90
20881;DHT22;10600;53.096;8.802;2022-10-26T00:06:24;10.00;99.90
20881;DHT22;10600;53.096;8.802;2022-10-26T00:07:28;10.00;99.90
20881;DHT22;10600;53.096;8.802;2022-10-26T00:08:29;10.00;99.90
20881;DHT22;10600;53.096;8.802;2022-10-26T00:09:30;10.00;99.90
20881;DHT22;10600;53.096;8.802;2022-10-26T00:10:33;10.10;99.90
20881;DHT22;10600;53.096;8.802;2022-10-26T00:11:34;10.00;99.90
20881;DHT22;10600;53.096;8.802;2022-10-26T00:12:35;10.10;99.90
20881;DHT22;10600;53.096;8.802;2022-10-26T00:13:36;10.10;99.90
20881;DHT22;10600;53.096;8.802;2022-10-26T00:14:37;10.10;99.90
20881;DHT22;10600;53.096;8.802;2022-10-26T00:15:41;10.10;99.90
20881;DHT22;10600;53.096;8.802;2022-10-26T00:16:42;10.10;99.90
20881;DHT22;10600;53.096;8.802;2022-10-26T00:17:42;10.10;99.90
20881;DHT22;10600;53.096;8.802;2022-10-26T00:18:44;10.10;99.90
20881;DHT22;10600;53.096;8.802;2022-10-26T00:19:45;10.10;99.90
20881;DHT22;10600;53.096;8.802;2022-10-26T00:20:45;10.00;99.90
20881;DHT22;10600;53.096;8.802;2022-10-26T00:21:46;10.10;99.90
20881;DHT22;10600;53.096;8.802;2022-10-26T00:22:47;10.10;99.90
20881;DHT22;10600;53.096;8.802;2022-10-26T00:23:47;10.10;99.90
20881;DHT22;10600;53.096;8.802;2022-10-26T00:24:48;10.10;99.90
20881;DHT22;10600;53.096;8.802;2022-10-26T00:25:56;10.00;99.90
20881;DHT22;10600;53.096;8.802;2022-10-26T00:26:57;10.00;99.90
20881;DHT22;10600;53.096;8.802;2022-10-26T00:27:57;10.00;99.90
20881;DHT22;10600;53.096;8.802;2022-10-26T00:28:58;10.00;99.90
20881;DHT22;10600;53.096;8.802;2022-10-26T00:29:59;10.00;99.90
20881;DHT22;10600;53.096;8.802;2022-10-26T00:31:08;10.00;99.90
20881;DHT22;10600;53.096;8.802;2022-10-26T00:32:10;10.00;99.90
20881;DHT22;10600;53.096;8.802;2022-10-26T00:33:12;10.00;99.90
20881;DHT22;10600;53.096;8.802;2022-10-26T00:34:13;10.00;99.90
20881;DHT22;10600;53.096;8.802;2022-10-26T00:35:14;10.00;99.90
20881;DHT22;10600;53.096;8.802;2022-10-26T00:36:14;10.00;99.90
20881;DHT22;10600;53.096;8.802;2022-10-26T00:37:16;10.00;99.90
20881;DHT22;10600;53.096;8.802;2022-10-26T00:38:16;10.00;99.90
20881;DHT22;10600;53.096;8.802;2022-10-26T00:39:17;10.00;99.90
20881;DHT22;10600;53.096;8.802;2022-10-26T00:40:18;10.00;99.90
20881;DHT22;10600;53.096;8.802;2022-10-26T00:41:25;10.00;99.90
20881;DHT22;10600;53.096;8.802;2022-10-26T00:42:26;9.90;99.90
20881;DHT22;10600;53.096;8.802;2022-10-26T00:45:48;9.90;99.90
20881;DHT22;10600;53.096;8.802;2022-10-26T00:46:50;9.90;99.90
20881;DHT22;10600;53.096;8.802;2022-10-26T00:48:35;9.80;99.90
20881;DHT22;10600;53.096;8.802;2022-10-26T00:49:35;9.80;99.90
20881;DHT22;10600;53.096;8.802;2022-10-26T00:50:39;9.80;99.90
20881;DHT22;10600;53.096;8.802;2022-10-26T00:51:47;9.80;99.90
20881;DHT22;10600;53.096;8.802;2022-10-26T00:52:50;9.80;99.90
20881;DHT22;10600;53.096;8.802;2022-10-26T00:53:52;9.80;99.90
20881;DHT22;10600;53.096;8.802;2022-10-26T00:54:53;9.80;99.90
20881;DHT22;10600;53.096;8.802;2022-10-26T00:55:55;9.80;99.90
20881;DHT22;10600;53.096;8.802;2022-10-26T00:56:56;9.80;99.90
20881;DHT22;10600;53.096;8.802;2022-10-26T00:57:58;9.80;99.90
20881;DHT22;10600;53.096;8.802;2022-10-26T00:59:05;9.70;99.90
20881;DHT22;10600;53.096;8.802;2022-10-26T01:00:07;9.70;99.90
20881;DHT22;10600;53.096;8.802;2022-10-26T01:01:08;9.70;99.90
20881;DHT22;10600;53.096;8.802;2022-10-26T01:02:09;9.70;99.90
20881;DHT22;10600;53.096;8.802;2022-10-26T01:03:10;9.70;99.90
20881;DHT22;10600;53.096;8.802;2022-10-26T01:04:12;9.70;99.90
20881;DHT22;10600;53.096;8.802;2022-10-26T01:05:14;9.70;99.90
20881;DHT22;10600;53.096;8.802;2022-10-26T01:06:15;9.70;99.90
20881;DHT22;10600;53.096;8.802;2022-10-26T01:07:16;9.80;99.90
20881;DHT22;10600;53.096;8.802;2022-10-26T01:08:17;9.80;99.90
20881;DHT22;10600;53.096;8.802;2022-10-26T01:09:19;9.80;99.90
20881;DHT22;10600;53.096;8.802;2022-10-26T01:10:20;9.70;99.90
20881;DHT22;10600;53.096;8.802;2022-10-26T01:11:20;9.70;99.90
20881;DHT22;10600;53.096;8.802;2022-10-26T01:12:21;9.70;99.90
20881;DHT22;10600;53.096;8.802;2022-10-26T01:13:23;9.70;99.90
20881;DHT22;10600;53.096;8.802;2022-10-26T01:14:26;9.60;99.90
20881;DHT22;10600;53.096;8.802;2022-10-26T01:18:18;9.60;99.90
20881;DHT22;10600;53.096;8.802;2022-10-26T01:26:26;9.40;99.90
20881;DHT22;10600;53.096;8.802;2022-10-26T01:27:38;9.40;99.90
20881;DHT22;10600;53.096;8.802;2022-10-26T01:31:33;9.30;99.90
20881;DHT22;10600;53.096;8.802;2022-10-26T01:32:51;9.30;99.90
20881;DHT22;10600;53.096;8.802;2022-10-26T01:34:03;9.30;99.90
20881;DHT22;10600;53.096;8.802;2022-10-26T01:35:09;9.40;99.90
20881;DHT22;10600;53.096;8.802;2022-10-26T01:36:21;9.40;99.90
20881;DHT22;10600;53.096;8.802;2022-10-26T01:37:27;9.40;99.90
20881;DHT22;10600;53.096;8.802;2022-10-26T01:38:42;9.50;99.90
20881;DHT22;10600;53.096;8.802;2022-10-26T01:39:54;9.50;99.90
20881;DHT22;10600;53.096;8.802;2022-10-26T01:40:59;9.50;99.90
20881;DHT22;10600;53.096;8.802;2022-10-26T01:42:04;9.50;99.90
20881;DHT22;10600;53.096;8.802;2022-10-26T01:43:08;9.50;99.90
20881;DHT22;10600;53.096;8.802;2022-10-26T01:44:40;9.50;99.90
20881;DHT22;10600;53.096;8.802;2022-10-26T01:45:45;9.50;99.90
20881;DHT22;10600;53.096;8.802;2022-10-26T01:46:48;9.50;99.90
20881;DHT22;10600;53.096;8.802;2022-10-26T01:47:51;9.50;99.90
20881;DHT22;10600;53.096;8.802;2022-10-26T01:48:58;9.60;99.90
20881;DHT22;10600;53.096;8.802;2022-10-26T01:50:02;9.50;99.90
20881;DHT22;10600;53.096;8.802;2022-10-26T01:51:03;9.50;99.90
20881;DHT22;10600;53.096;8.802;2022-10-26T01:52:05;9.50;99.90
20881;DHT22;10600;53.096;8.802;2022-10-26T01:53:12;9.50;99.90
20881;DHT22;10600;53.096;8.802;2022-10-26T01:54:13;9.50;99.90
20881;DHT22;10600;53.096;8.802;2022-10-26T01:56:40;9.50;99.90
20881;DHT22;10600;53.096;8.802;2022-10-26T01:57:41;9.50;99.90
20881;DHT22;10600;53.096;8.802;2022-10-26T01:58:57;9.50;99.90
20881;DHT22;10600;53.096;8.802;2022-10-26T02:00:08;9.50;99.90
20881;DHT22;10600;53.096;8.802;2022-10-26T02:05:59;9.50;99.90
20881;DHT22;10600;53.096;8.802;2022-10-26T02:12:07;9.40;99.90
20881;DHT22;10600;53.096;8.802;2022-10-26T02:13:24;9.40;99.90
20881;DHT22;10600;53.096;8.802;2022-10-26T02:14:37;9.40;99.90
20881;DHT22;10600;53.096;8.802;2022-10-26T02:15:52;9.40;99.90
20881;DHT22;10600;53.096;8.802;2022-10-26T02:17:03;9.40;99.90
20881;DHT22;10600;53.096;8.802;2022-10-26T02:19:39;9.30;99.90
20881;DHT22;10600;53.096;8.802;2022-10-26T02:20:45;9.30;99.90
20881;DHT22;10600;53.096;8.802;2022-10-26T02:21:57;9.40;99.90
20881;DHT22;10600;53.096;8.802;2022-10-26T02:23:03;9.40;99.90
20881;DHT22;10600;53.096;8.802;2022-10-26T02:24:07;9.40;99.90
20881;DHT22;10600;53.096;8.802;2022-10-26T02:25:31;9.40;99.90
20881;DHT22;10600;53.096;8.802;2022-10-26T02:26:33;9.40;99.90
20881;DHT22;10600;53.096;8.802;2022-10-26T02:27:40;9.40;99.90
20881;DHT22;10600;53.096;8.802;2022-10-26T02:28:44;9.40;99.90
20881;DHT22;10600;53.096;8.802;2022-10-26T02:29:48;9.40;99.90
20881;DHT22;10600;53.096;8.802;2022-10-26T02:30:52;9.40;99.90
20881;DHT22;10600;53.096;8.802;2022-10-26T02:31:54;9.40;99.90
20881;DHT22;10600;53.096;8.802;2022-10-26T02:32:56;9.40;99.90
20881;DHT22;10600;53.096;8.802;2022-10-26T02:34:01;9.50;99.90
20881;DHT22;10600;53.096;8.802;2022-10-26T02:35:04;9.40;99.90
20881;DHT22;10600;53.096;8.802;2022-10-26T02:36:09;9.50;99.90
20881;DHT22;10600;53.096;8.802;2022-10-26T02:37:11;9.50;99.90
20881;DHT22;10600;53.096;8.802;2022-10-26T02:38:14;9.50;99.90
20881;DHT22;10600;53.096;8.802;2022-10-26T02:39:18;9.50;99.90
20881;DHT22;10600;53.096;8.802;2022-10-26T02:40:23;9.50;99.90
20881;DHT22;10600;53.096;8.802;2022-10-26T02:41:26;9.50;99.90
20881;DHT22;10600;53.096;8.802;2022-10-26T02:42:28;9.50;99.90
20881;DHT22;10600;53.096;8.802;2022-10-26T02:43:29;9.50;99.90
20881;DHT22;10600;53.096;8.802;2022-10-26T02:44:37;9.50;99.90
20881;DHT22;10600;53.096;8.802;2022-10-26T02:45:48;9.50;99.90
20881;DHT22;10600;53.096;8.802;2022-10-26T02:46:50;9.50;99.90
20881;DHT22;10600;53.096;8.802;2022-10-26T02:47:53;9.50;99.90
20881;DHT22;10600;53.096;8.802;2022-10-26T02:48:54;9.50;99.90
20881;DHT22;10600;53.096;8.802;2022-10-26T02:49:55;9.50;99.90
20881;DHT22;10600;53.096;8.802;2022-10-26T02:51:00;9.50;99.90
20881;DHT22;10600;53.096;8.802;2022-10-26T02:53:34;9.50;99.90
20881;DHT22;10600;53.096;8.802;2022-10-26T02:55:21;9.50;99.90
20881;DHT22;10600;53.096;8.802;2022-10-26T02:56:23;9.50;99.90
20881;DHT22;10600;53.096;8.802;2022-10-26T02:58:29;9.60;99.90
20881;DHT22;10600;53.096;8.802;2022-10-26T02:59:34;9.60;99.90
20881;DHT22;10600;53.096;8.802;2022-10-26T03:00:36;9.60;99.90
20881;DHT22;10600;53.096;8.802;2022-10-26T03:01:37;9.60;99.90
20881;DHT22;10600;53.096;8.802;2022-10-26T03:02:42;9.60;99.90
20881;DHT22;10600;53.096;8.802;2022-10-26T03:03:43;9.60;99.90
20881;DHT22;10600;53.096;8.802;2022-10-26T03:04:44;9.60;99.90
20881;DHT22;10600;53.096;8.802;2022-10-26T03:05:44;9.60;99.90
20881;DHT22;10600;53.096;8.802;2022-10-26T03:06:52;9.60;99.90
20881;DHT22;10600;53.096;8.802;2022-10-26T03:07:54;9.60;99.90
20881;DHT22;10600;53.096;8.802;2022-10-26T03:08:54;9.60;99.90
20881;DHT22;10600;53.096;8.802;2022-10-26T03:09:55;9.60;99.90
20881;DHT22;10600;53.096;8.802;2022-10-26T03:10:56;9.60;99.90
20881;DHT22;10600;53.096;8.802;2022-10-26T03:11:57;9.60;99.90
20881;DHT22;10600;53.096;8.802;2022-10-26T03:12:58;9.60;99.90
20881;DHT22;10600;53.096;8.802;2022-10-26T03:13:58;9.60;99.90
20881;DHT22;10600;53.096;8.802;2022-10-26T03:14:59;9.60;99.90
20881;DHT22;10600;53.096;8.802;2022-10-26T03:15:59;9.60;99.90
20881;DHT22;10600;53.096;8.802;2022-10-26T03:17:00;9.60;99.90
20881;DHT22;10600;53.096;8.802;2022-10-26T03:18:01;9.60;99.90
20881;DHT22;10600;53.096;8.802;2022-10-26T03:19:02;9.60;99.90
20881;DHT22;10600;53.096;8.802;2022-10-26T03:20:03;9.60;99.90
20881;DHT22;10600;53.096;8.802;2022-10-26T03:21:04;9.60;99.90
20881;DHT22;10600;53.096;8.802;2022-10-26T03:22:04;9.60;99.90
20881;DHT22;10600;53.096;8.802;2022-10-26T03:23:05;9.50;99.90
20881;DHT22;10600;53.096;8.802;2022-10-26T03:24:06;9.50;99.90
20881;DHT22;10600;53.096;8.802;2022-10-26T03:25:07;9.50;99.90
20881;DHT22;10600;53.096;8.802;2022-10-26T03:26:07;9.50;99.90
20881;DHT22;10600;53.096;8.802;2022-10-26T03:27:08;9.50;99.90
20881;DHT22;10600;53.096;8.802;2022-10-26T03:28:09;9.50;99.90
20881;DHT22;10600;53.096;8.802;2022-10-26T03:29:09;9.50;99.90
20881;DHT22;10600;53.096;8.802;2022-10-26T03:30:10;9.50;99.90
20881;DHT22;10600;53.096;8.802;2022-10-26T03:31:11;9.50;99.90
20881;DHT22;10600;53.096;8.802;2022-10-26T03:32:11;9.40;99.90
20881;DHT22;10600;53.096;8.802;2022-10-26T03:33:12;9.40;99.90
20881;DHT22;10600;53.096;8.802;2022-10-26T03:34:13;9.40;99.90
20881;DHT22;10600;53.096;8.802;2022-10-26T03:35:14;9.40;99.90
20881;DHT22;10600;53.096;8.802;2022-10-26T03:36:14;9.40;99.90
20881;DHT22;10600;53.096;8.802;2022-10-26T03:37:15;9.40;99.90
20881;DHT22;10600;53.096;8.802;2022-10-26T03:38:16;9.40;99.90
20881;DHT22;10600;53.096;8.802;2022-10-26T03:39:16;9.40;99.90
20881;DHT22;10600;53.096;8.802;2022-10-26T03:40:17;9.40;99.90
20881;DHT22;10600;53.096;8.802;2022-10-26T03:41:18;9.40;99.90
20881;DHT22;10600;53.096;8.802;2022-10-26T03:42:18;9.40;99.90
20881;DHT22;10600;53.096;8.802;2022-10-26T03:43:19;9.40;99.90
20881;DHT22;10600;53.096;8.802;2022-10-26T03:44:20;9.40;99.90
20881;DHT22;10600;53.096;8.802;2022-10-26T03:45:21;9.40;99.90
20881;DHT22;10600;53.096;8.802;2022-10-26T03:46:21;9.40;99.90
20881;DHT22;10600;53.096;8.802;2022-10-26T03:47:22;9.30;99.90
20881;DHT22;10600;53.096;8.802;2022-10-26T03:48:23;9.40;99.90
20881;DHT22;10600;53.096;8.802;2022-10-26T03:49:23;9.40;99.90
20881;DHT22;10600;53.096;8.802;2022-10-26T03:50:24;9.40;99.90
20881;DHT22;10600;53.096;8.802;2022-10-26T03:51:25;9.40;99.90
20881;DHT22;10600;53.096;8.802;2022-10-26T03:52:25;9.40;99.90
20881;DHT22;10600;53.096;8.802;2022-10-26T03:53:26;9.40;99.90
20881;DHT22;10600;53.096;8.802;2022-10-26T03:54:27;9.40;99.90
20881;DHT22;10600;53.096;8.802;2022-10-26T03:55:27;9.40;99.90
20881;DHT22;10600;53.096;8.802;2022-10-26T03:56:28;9.40;99.90
20881;DHT22;10600;53.096;8.802;2022-10-26T03:57:28;9.40;99.90
20881;DHT22;10600;53.096;8.802;2022-10-26T03:58:29;9.40;99.90
20881;DHT22;10600;53.096;8.802;2022-10-26T03:59:30;9.40;99.90
20881;DHT22;10600;53.096;8.802;2022-10-26T04:00:30;9.40;99.90
20881;DHT22;10600;53.096;8.802;2022-10-26T04:01:31;9.40;99.90
20881;DHT22;10600;53.096;8.802;2022-10-26T04:02:31;9.40;99.90
20881;DHT22;10600;53.096;8.802;2022-10-26T04:03:32;9.40;99.90
20881;DHT22;10600;53.096;8.802;2022-10-26T04:04:33;9.40;99.90
20881;DHT22;10600;53.096;8.802;2022-10-26T04:05:34;9.40;99.90
20881;DHT22;10600;53.096;8.802;2022-10-26T04:06:35;9.40;99.90
20881;DHT22;10600;53.096;8.802;2022-10-26T04:07:35;9.40;99.90
20881;DHT22;10600;53.096;8.802;2022-10-26T04:08:36;9.40;99.90
20881;DHT22;10600;53.096;8.802;2022-10-26T04:09:37;9.40;99.90
20881;DHT22;10600;53.096;8.802;2022-10-26T04:10:37;9.40;99.90
20881;DHT22;10600;53.096;8.802;2022-10-26T04:11:38;9.40;99.90
20881;DHT22;10600;53.096;8.802;2022-10-26T04:12:39;9.50;99.90
20881;DHT22;10600;53.096;8.802;2022-10-26T04:13:40;9.50;99.90
20881;DHT22;10600;53.096;8.802;2022-10-26T04:14:40;9.50;99.90
20881;DHT22;10600;53.096;8.802;2022-10-26T04:15:41;9.50;99.90
20881;DHT22;10600;53.096;8.802;2022-10-26T04:16:42;9.50;99.90
20881;DHT22;10600;53.096;8.802;2022-10-26T04:17:43;9.50;99.90
20881;DHT22;10600;53.096;8.802;2022-10-26T04:18:44;9.50;99.90
20881;DHT22;10600;53.096;8.802;2022-10-26T04:19:45;9.50;99.90
20881;DHT22;10600;53.096;8.802;2022-10-26T04:20:46;9.50;99.90
20881;DHT22;10600;53.096;8.802;2022-10-26T04:21:46;9.40;99.90
20881;DHT22;10600;53.096;8.802;2022-10-26T04:22:47;9.40;99.90
20881;DHT22;10600;53.096;8.802;2022-10-26T04:23:48;9.40;99.90
20881;DHT22;10600;53.096;8.802;2022-10-26T04:24:48;9.50;99.90
20881;DHT22;10600;53.096;8.802;2022-10-26T04:25:49;9.40;99.90
20881;DHT22;10600;53.096;8.802;2022-10-26T04:26:50;9.40;99.90
20881;DHT22;10600;53.096;8.802;2022-10-26T04:27:50;9.40;99.90
20881;DHT22;10600;53.096;8.802;2022-10-26T04:28:52;9.40;99.90
20881;DHT22;10600;53.096;8.802;2022-10-26T04:29:52;9.50;99.90
20881;DHT22;10600;53.096;8.802;2022-10-26T04:30:53;9.40;99.90
20881;DHT22;10600;53.096;8.802;2022-10-26T04:31:54;9.40;99.90
20881;DHT22;10600;53.096;8.802;2022-10-26T04:32:54;9.40;99.90
20881;DHT22;10600;53.096;8.802;2022-10-26T04:33:55;9.40;99.90
20881;DHT22;10600;53.096;8.802;2022-10-26T04:34:58;9.40;99.90
20881;DHT22;10600;53.096;8.802;2022-10-26T04:35:59;9.40;99.90
20881;DHT22;10600;53.096;8.802;2022-10-26T04:37:00;9.40;99.90
20881;DHT22;10600;53.096;8.802;2022-10-26T04:38:04;9.50;99.90
20881;DHT22;10600;53.096;8.802;2022-10-26T04:39:05;9.50;99.90
20881;DHT22;10600;53.096;8.802;2022-10-26T04:40:06;9.50;99.90
20881;DHT22;10600;53.096;8.802;2022-10-26T04:41:07;9.40;99.90
20881;DHT22;10600;53.096;8.802;2022-10-26T04:42:07;9.50;99.90
20881;DHT22;10600;53.096;8.802;2022-10-26T04:43:08;9.40;99.90
20881;DHT22;10600;53.096;8.802;2022-10-26T04:44:09;9.50;99.90
20881;DHT22;10600;53.096;8.802;2022-10-26T04:45:11;9.40;99.90
20881;DHT22;10600;53.096;8.802;2022-10-26T04:46:12;9.40;99.90
20881;DHT22;10600;53.096;8.802;2022-10-26T04:47:13;9.40;99.90
20881;DHT22;10600;53.096;8.802;2022-10-26T04:48:14;9.40;99.90
20881;DHT22;10600;53.096;8.802;2022-10-26T04:49:14;9.40;99.90
20881;DHT22;10600;53.096;8.802;2022-10-26T04:50:15;9.40;99.90
20881;DHT22;10600;53.096;8.802;2022-10-26T04:51:16;9.40;99.90
20881;DHT22;10600;53.096;8.802;2022-10-26T04:52:16;9.40;99.90
20881;DHT22;10600;53.096;8.802;2022-10-26T04:53:17;9.40;99.90
20881;DHT22;10600;53.096;8.802;2022-10-26T04:54:18;9.40;99.90
20881;DHT22;10600;53.096;8.802;2022-10-26T04:55:18;9.40;99.90
20881;DHT22;10600;53.096;8.802;2022-10-26T04:56:19;9.40;99.90
20881;DHT22;10600;53.096;8.802;2022-10-26T04:57:20;9.30;99.90
20881;DHT22;10600;53.096;8.802;2022-10-26T04:58:20;9.30;99.90
20881;DHT22;10600;53.096;8.802;2022-10-26T04:59:21;9.30;99.90
20881;DHT22;10600;53.096;8.802;2022-10-26T05:00:22;9.30;99.90
20881;DHT22;10600;53.096;8.802;2022-10-26T05:01:22;9.30;99.90
20881;DHT22;10600;53.096;8.802;2022-10-26T05:02:23;9.30;99.90
20881;DHT22;10600;53.096;8.802;2022-10-26T05:03:24;9.30;99.90
20881;DHT22;10600;53.096;8.802;2022-10-26T05:04:24;9.30;99.90
20881;DHT22;10600;53.096;8.802;2022-10-26T05:05:25;9.30;99.90
20881;DHT22;10600;53.096;8.802;2022-10-26T05:06:26;9.30;99.90
20881;DHT22;10600;53.096;8.802;2022-10-26T05:07:27;9.30;99.90
20881;DHT22;10600;53.096;8.802;2022-10-26T05:08:27;9.20;99.90
20881;DHT22;10600;53.096;8.802;2022-10-26T05:09:31;9.20;99.90
20881;DHT22;10600;53.096;8.802;2022-10-26T05:10:32;9.20;99.90
20881;DHT22;10600;53.096;8.802;2022-10-26T05:11:32;9.20;99.90
20881;DHT22;10600;53.096;8.802;2022-10-26T05:12:33;9.20;99.90
20881;DHT22;10600;53.096;8.802;2022-10-26T05:13:34;9.20;99.90
20881;DHT22;10600;53.096;8.802;2022-10-26T05:14:34;9.10;99.90
20881;DHT22;10600;53.096;8.802;2022-10-26T05:15:35;9.10;99.90
20881;DHT22;10600;53.096;8.802;2022-10-26T05:16:35;9.20;99.90
20881;DHT22;10600;53.096;8.802;2022-10-26T05:17:36;9.10;99.90
20881;DHT22;10600;53.096;8.802;2022-10-26T05:18:37;9.10;99.90
20881;DHT22;10600;53.096;8.802;2022-10-26T05:19:37;9.10;99.90
20881;DHT22;10600;53.096;8.802;2022-10-26T05:20:38;9.00;99.90
20881;DHT22;10600;53.096;8.802;2022-10-26T05:21:39;9.00;99.90
20881;DHT22;10600;53.096;8.802;2022-10-26T05:22:40;9.00;99.90
20881;DHT22;10600;53.096;8.802;2022-10-26T05:23:40;9.00;99.90
20881;DHT22;10600;53.096;8.802;2022-10-26T05:24:41;9.00;99.90
20881;DHT22;10600;53.096;8.802;2022-10-26T05:25:41;9.00;99.90
20881;DHT22;10600;53.096;8.802;2022-10-26T05:26:42;9.00;99.90
20881;DHT22;10600;53.096;8.802;2022-10-26T05:27:43;9.00;99.90
20881;DHT22;10600;53.096;8.802;2022-10-26T05:28:44;9.00;99.90
20881;DHT22;10600;53.096;8.802;2022-10-26T05:29:45;9.00;99.90
20881;DHT22;10600;53.096;8.802;2022-10-26T05:30:46;9.00;99.90
20881;DHT22;10600;53.096;8.802;2022-10-26T05:31:46;9.00;99.90
20881;DHT22;10600;53.096;8.802;2022-10-26T05:32:53;9.00;99.90
20881;DHT22;10600;53.096;8.802;2022-10-26T05:33:54;9.00;99.90
20881;DHT22;10600;53.096;8.802;2022-10-26T05:34:55;9.00;99.90
20881;DHT22;10600;53.096;8.802;2022-10-26T05:35:56;8.90;99.90
20881;DHT22;10600;53.096;8.802;2022-10-26T05:36:56;8.90;99.90
20881;DHT22;10600;53.096;8.802;2022-10-26T05:37:58;9.00;99.90
20881;DHT22;10600;53.096;8.802;2022-10-26T05:38:59;9.00;99.90
20881;DHT22;10600;53.096;8.802;2022-10-26T05:39:59;8.90;99.90
20881;DHT22;10600;53.096;8.802;2022-10-26T05:41:00;9.00;99.90
20881;DHT22;10600;53.096;8.802;2022-10-26T05:42:01;9.00;99.90
20881;DHT22;10600;53.096;8.802;2022-10-26T05:43:02;9.00;99.90
20881;DHT22;10600;53.096;8.802;2022-10-26T05:44:03;9.00;99.90
20881;DHT22;10600;53.096;8.802;2022-10-26T05:45:04;9.00;99.90
20881;DHT22;10600;53.096;8.802;2022-10-26T05:46:04;9.00;99.90
20881;DHT22;10600;53.096;8.802;2022-10-26T05:47:05;9.00;99.90
20881;DHT22;10600;53.096;8.802;2022-10-26T05:48:06;9.00;99.90
20881;DHT22;10600;53.096;8.802;2022-10-26T05:49:07;9.00;99.90
20881;DHT22;10600;53.096;8.802;2022-10-26T05:50:08;9.00;99.90
20881;DHT22;10600;53.096;8.802;2022-10-26T05:51:09;9.00;99.90
20881;DHT22;10600;53.096;8.802;2022-10-26T05:52:11;9.00;99.90
20881;DHT22;10600;53.096;8.802;2022-10-26T05:53:12;9.00;99.90
20881;DHT22;10600;53.096;8.802;2022-10-26T05:54:13;9.00;99.90
20881;DHT22;10600;53.096;8.802;2022-10-26T05:55:15;9.00;99.90
20881;DHT22;10600;53.096;8.802;2022-10-26T05:56:32;9.00;99.90
20881;DHT22;10600;53.096;8.802;2022-10-26T05:57:34;9.00;99.90
20881;DHT22;10600;53.096;8.802;2022-10-26T05:58:35;9.00;99.90
20881;DHT22;10600;53.096;8.802;2022-10-26T05:59:39;9.00;99.90
20881;DHT22;10600;53.096;8.802;2022-10-26T06:04:43;9.00;99.90
20881;DHT22;10600;53.096;8.802;2022-10-26T06:05:55;9.00;99.90
20881;DHT22;10600;53.096;8.802;2022-10-26T06:06:56;9.00;99.90
20881;DHT22;10600;53.096;8.802;2022-10-26T06:07:58;8.90;99.90
20881;DHT22;10600;53.096;8.802;2022-10-26T06:08:58;9.00;99.90
20881;DHT22;10600;53.096;8.802;2022-10-26T06:09:59;8.90;99.90
20881;DHT22;10600;53.096;8.802;2022-10-26T06:11:00;8.90;99.90
20881;DHT22;10600;53.096;8.802;2022-10-26T06:12:02;8.90;99.90
20881;DHT22;10600;53.096;8.802;2022-10-26T06:13:03;8.90;99.90
20881;DHT22;10600;53.096;8.802;2022-10-26T06:14:05;8.90;99.90
20881;DHT22;10600;53.096;8.802;2022-10-26T06:15:08;8.90;99.90
20881;DHT22;10600;53.096;8.802;2022-10-26T06:19:08;8.90;99.90
20881;DHT22;10600;53.096;8.802;2022-10-26T06:20:29;8.90;99.90
20881;DHT22;10600;53.096;8.802;2022-10-26T06:22:02;8.90;99.90
20881;DHT22;10600;53.096;8.802;2022-10-26T06:25:52;8.90;99.90
20881;DHT22;10600;53.096;8.802;2022-10-26T06:28:33;8.90;99.90
20881;DHT22;10600;53.096;8.802;2022-10-26T06:30:56;8.90;99.90
20881;DHT22;10600;53.096;8.802;2022-10-26T06:31:57;8.90;99.90
20881;DHT22;10600;53.096;8.802;2022-10-26T06:32:58;8.90;99.90
20881;DHT22;10600;53.096;8.802;2022-10-26T06:34:00;8.90;99.90
20881;DHT22;10600;53.096;8.802;2022-10-26T06:36:27;9.00;99.90
20881;DHT22;10600;53.096;8.802;2022-10-26T06:37:28;9.00;99.90
20881;DHT22;10600;53.096;8.802;2022-10-26T06:38:33;9.00;99.90
20881;DHT22;10600;53.096;8.802;2022-10-26T06:39:36;9.00;99.90
20881;DHT22;10600;53.096;8.802;2022-10-26T06:40:41;9.00;99.90
20881;DHT22;10600;53.096;8.802;2022-10-26T06:41:43;9.00;99.90
20881;DHT22;10600;53.096;8.802;2022-10-26T06:42:44;9.00;99.90
20881;DHT22;10600;53.096;8.802;2022-10-26T06:43:45;9.00;99.90
20881;DHT22;10600;53.096;8.802;2022-10-26T06:44:46;9.10;99.90
20881;DHT22;10600;53.096;8.802;2022-10-26T06:45:49;9.10;99.90
20881;DHT22;10600;53.096;8.802;2022-10-26T06:47:06;9.10;99.90
20881;DHT22;10600;53.096;8.802;2022-10-26T06:48:15;9.10;99.90
20881;DHT22;10600;53.096;8.802;2022-10-26T06:51:44;9.30;99.90
20881;DHT22;10600;53.096;8.802;2022-10-26T06:54:17;9.30;99.90
20881;DHT22;10600;53.096;8.802;2022-10-26T06:55:21;9.30;99.90
20881;DHT22;10600;53.096;8.802;2022-10-26T06:56:22;9.30;99.90
20881;DHT22;10600;53.096;8.802;2022-10-26T06:57:28;9.30;99.90
20881;DHT22;10600;53.096;8.802;2022-10-26T06:58:35;9.40;99.90
20881;DHT22;10600;53.096;8.802;2022-10-26T06:59:42;9.40;99.90
20881;DHT22;10600;53.096;8.802;2022-10-26T07:00:45;9.40;99.90
20881;DHT22;10600;53.096;8.802;2022-10-26T07:01:47;9.40;99.90
20881;DHT22;10600;53.096;8.802;2022-10-26T07:02:48;9.50;99.90
20881;DHT22;10600;53.096;8.802;2022-10-26T07:03:49;9.50;99.90
20881;DHT22;10600;53.096;8.802;2022-10-26T07:04:49;9.50;99.90
20881;DHT22;10600;53.096;8.802;2022-10-26T07:05:50;9.60;99.90
20881;DHT22;10600;53.096;8.802;2022-10-26T07:06:51;9.60;99.90
20881;DHT22;10600;53.096;8.802;2022-10-26T07:07:52;9.60;99.90
20881;DHT22;10600;53.096;8.802;2022-10-26T07:08:52;9.60;99.90
20881;DHT22;10600;53.096;8.802;2022-10-26T07:09:53;9.60;99.90
20881;DHT22;10600;53.096;8.802;2022-10-26T07:10:54;9.70;99.90
20881;DHT22;10600;53.096;8.802;2022-10-26T07:11:54;9.70;99.90
20881;DHT22;10600;53.096;8.802;2022-10-26T07:12:55;9.70;99.90
20881;DHT22;10600;53.096;8.802;2022-10-26T07:13:56;9.70;99.90
20881;DHT22;10600;53.096;8.802;2022-10-26T07:14:57;9.70;99.90
20881;DHT22;10600;53.096;8.802;2022-10-26T07:15:57;9.80;99.90
20881;DHT22;10600;53.096;8.802;2022-10-26T07:16:58;9.80;99.90
20881;DHT22;10600;53.096;8.802;2022-10-26T07:17:59;9.80;99.90
20881;DHT22;10600;53.096;8.802;2022-10-26T07:18:59;9.80;99.90
20881;DHT22;10600;53.096;8.802;2022-10-26T07:20:00;9.90;99.90
20881;DHT22;10600;53.096;8.802;2022-10-26T07:21:01;9.90;99.90
20881;DHT22;10600;53.096;8.802;2022-10-26T07:22:01;9.90;99.90
20881;DHT22;10600;53.096;8.802;2022-10-26T07:23:03;9.90;99.90
20881;DHT22;10600;53.096;8.802;2022-10-26T07:24:06;10.00;99.90
20881;DHT22;10600;53.096;8.802;2022-10-26T07:25:07;10.00;99.90
20881;DHT22;10600;53.096;8.802;2022-10-26T07:26:08;10.00;99.90
20881;DHT22;10600;53.096;8.802;2022-10-26T07:27:09;10.00;99.90
20881;DHT22;10600;53.096;8.802;2022-10-26T07:28:10;10.10;99.90
20881;DHT22;10600;53.096;8.802;2022-10-26T07:29:10;10.10;99.90
20881;DHT22;10600;53.096;8.802;2022-10-26T07:30:11;10.10;99.90